Time;durP1;ratioP1;P1;durP2;ratioP2;P2;SDS_P1;SDS_P2;PMS_P1;PMS_P2;Temp;Humidity;BMP_temperature;BMP_pressure;BME280_temperature;BME280_humidity;BME280_pressure;Samples;Min_cycle;Max_cycle;Signal;HPM_P1;HPM_P2
2024/01/08 00:01:50;;;;;;;3.17;2.43;;;1.00;94.50;;;;;;5071195;28;20863;-63
2024/01/08 00:04:17;;;;;;;3.77;2.40;;;1.00;94.40;;;;;;5051342;27;20479;-63
2024/01/08 00:06:43;;;;;;;2.93;2.27;;;1.10;94.50;;;;;;5068459;27;20482;-65
2024/01/08 00:09:09;;;;;;;4.33;2.33;;;1.10;94.30;;;;;;5075136;27;20498;-64
2024/01/08 00:11:36;;;;;;;2.60;2.40;;;1.10;94.70;;;;;;5074362;27;20838;-64
2024/01/08 00:14:02;;;;;;;9.13;2.33;;;1.20;94.50;;;;;;5059031;27;20477;-64
2024/01/08 00:16:29;;;;;;;7.10;2.83;;;;;;;;;;5051947;27;20848;-64
2024/01/08 00:18:56;;;;;;;17.43;2.70;;;;;;;;;;5044452;28;20505;-64
2024/01/08 00:21:23;;;;;;;5.50;2.27;;;1.20;94.40;;;;;;5042151;27;20932;-65
2024/01/08 00:23:49;;;;;;;3.20;2.50;;;1.10;94.50;;;;;;5063948;28;20712;-64
2024/01/08 00:26:16;;;;;;;14.33;3.17;;;1.10;94.50;;;;;;5064085;28;20954;-63
2024/01/08 00:28:42;;;;;;;2.93;2.03;;;1.10;94.60;;;;;;5064150;28;20469;-62
2024/01/08 00:31:08;;;;;;;4.57;4.00;;;1.10;94.50;;;;;;5065101;28;20993;-63
2024/01/08 00:33:34;;;;;;;9.50;1.73;;;1.20;94.50;;;;;;5063891;28;20490;-64
2024/01/08 00:36:01;;;;;;;3.27;2.97;;;1.20;94.70;;;;;;5066524;27;20845;-63
2024/01/08 00:38:28;;;;;;;11.90;3.20;;;1.20;94.50;;;;;;5041056;28;21103;-64
2024/01/08 00:40:54;;;;;;;11.77;3.37;;;1.20;94.60;;;;;;5052424;28;20481;-65
2024/01/08 00:43:20;;;;;;;8.07;3.20;;;1.20;94.60;;;;;;5029826;28;20483;-68
2024/01/08 00:45:46;;;;;;;6.87;2.33;;;1.20;94.50;;;;;;5055595;28;20544;-68
2024/01/08 00:48:12;;;;;;;2.10;1.43;;;1.20;94.20;;;;;;5051786;28;20563;-69
2024/01/08 00:50:39;;;;;;;3.90;2.40;;;1.20;94.20;;;;;;5049149;28;21155;-68
2024/01/08 00:53:06;;;;;;;31.37;3.80;;;1.20;94.50;;;;;;5061919;28;20859;-67
2024/01/08 00:55:32;;;;;;;8.43;1.90;;;1.20;94.30;;;;;;5050616;28;20543;-67
2024/01/08 00:57:59;;;;;;;10.90;1.90;;;1.10;94.50;;;;;;5049315;28;20474;-68
2024/01/08 01:00:25;;;;;;;12.07;2.67;;;1.10;94.20;;;;;;5062267;28;20859;-67
2024/01/08 01:02:51;;;;;;;2.83;1.93;;;1.10;94.30;;;;;;5049604;28;20482;-68
2024/01/08 01:05:17;;;;;;;3.90;2.73;;;1.10;94.40;;;;;;5057011;28;20490;-67
2024/01/08 01:07:43;;;;;;;2.70;1.73;;;1.10;94.40;;;;;;5041705;28;20486;-69
2024/01/08 01:10:10;;;;;;;5.20;1.50;;;1.10;94.20;;;;;;5048260;28;20471;-68
2024/01/08 01:12:37;;;;;;;2.07;1.20;;;1.10;94.30;;;;;;5066136;28;20473;-64
2024/01/08 01:15:03;;;;;;;3.10;2.30;;;;;;;;;;5044080;28;20475;-63
2024/01/08 01:17:30;;;;;;;4.13;2.07;;;1.20;94.50;;;;;;5057416;28;20482;-64
2024/01/08 01:19:56;;;;;;;5.40;2.13;;;1.10;94.40;;;;;;5029021;28;20847;-62
2024/01/08 01:22:22;;;;;;;8.70;2.80;;;1.20;94.70;;;;;;5029547;28;20856;-63
2024/01/08 01:24:48;;;;;;;5.23;2.80;;;1.20;94.80;;;;;;5047676;28;20478;-63
2024/01/08 01:27:15;;;;;;;2.50;2.30;;;1.30;94.60;;;;;;5062358;28;20812;-63
2024/01/08 01:29:41;;;;;;;2.90;1.53;;;1.30;94.30;;;;;;5060387;28;21004;-64
2024/01/08 01:32:08;;;;;;;2.57;2.00;;;1.30;94.30;;;;;;5055623;28;20506;-64
2024/01/08 01:34:34;;;;;;;17.00;2.53;;;1.30;94.20;;;;;;5050866;28;20478;-64
2024/01/08 01:37:01;;;;;;;5.40;3.40;;;1.30;94.20;;;;;;5070896;28;20527;-64
2024/01/08 01:39:29;;;;;;;4.37;2.80;;;1.30;94.50;;;;;;5056529;28;20490;-63
2024/01/08 01:41:55;;;;;;;11.13;2.80;;;1.30;94.50;;;;;;5070923;28;20493;-62
2024/01/08 01:44:21;;;;;;;3.80;2.70;;;1.30;94.20;;;;;;5055242;28;20981;-63
2024/01/08 01:46:49;;;;;;;3.17;2.03;;;1.30;94.30;;;;;;5073635;28;20470;-63
2024/01/08 01:49:17;;;;;;;15.93;4.13;;;1.30;94.30;;;;;;5059258;28;20482;-63
2024/01/08 01:51:46;;;;;;;1.97;1.63;;;1.30;94.00;;;;;;5075007;28;20996;-64
2024/01/08 01:54:14;;;;;;;4.00;2.50;;;1.30;94.30;;;;;;5072351;28;20568;-67
2024/01/08 01:56:41;;;;;;;10.50;2.10;;;1.30;94.20;;;;;;5045459;27;20856;-68
2024/01/08 01:59:08;;;;;;;3.70;2.27;;;1.30;94.50;;;;;;5059741;28;20482;-69
2024/01/08 02:01:36;;;;;;;3.37;2.60;;;1.30;94.50;;;;;;5045329;28;20482;-68
2024/01/08 02:04:04;;;;;;;2.93;2.50;;;1.30;94.40;;;;;;5056155;28;20502;-68
2024/01/08 02:06:30;;;;;;;6.37;4.10;;;1.30;94.30;;;;;;5042685;28;20837;-67
2024/01/08 02:08:57;;;;;;;21.13;2.57;;;1.30;94.30;;;;;;5040681;28;20856;-69
2024/01/08 02:11:23;;;;;;;3.30;1.70;;;1.30;94.30;;;;;;5038727;28;20494;-69
2024/01/08 02:13:49;;;;;;;5.43;1.80;;;1.30;94.40;;;;;;5061126;28;20481;-66
2024/01/08 02:16:17;;;;;;;12.47;2.30;;;1.30;94.20;;;;;;5055510;28;20478;-68
2024/01/08 02:18:44;;;;;;;2.57;1.97;;;1.30;94.10;;;;;;5065311;28;20581;-68
2024/01/08 02:21:10;;;;;;;3.00;2.70;;;1.30;94.50;;;;;;5008233;28;20470;-68
2024/01/08 02:23:37;;;;;;;9.43;2.03;;;1.30;94.40;;;;;;5015452;28;20533;-67
2024/01/08 02:26:04;;;;;;;2.03;1.20;;;1.30;94.30;;;;;;5033422;28;20850;-68
2024/01/08 02:28:30;;;;;;;2.03;1.27;;;1.20;94.10;;;;;;5063179;27;21336;-67
2024/01/08 02:30:56;;;;;;;26.97;3.37;;;1.30;94.30;;;;;;5042924;28;20934;-68
2024/01/08 02:33:22;;;;;;;7.00;2.30;;;1.30;94.40;;;;;;5056609;28;20685;-69
2024/01/08 02:35:49;;;;;;;1.90;1.50;;;1.30;94.40;;;;;;5051503;28;20501;-69
2024/01/08 02:38:15;;;;;;;3.57;1.70;;;1.30;94.10;;;;;;5051188;28;20865;-69
2024/01/08 02:40:42;;;;;;;4.27;1.60;;;1.30;94.10;;;;;;5008808;28;20488;-69
2024/01/08 02:43:09;;;;;;;3.73;1.87;;;1.30;94.10;;;;;;5066896;27;20861;-68
2024/01/08 02:45:35;;;;;;;5.77;1.70;;;1.30;94.10;;;;;;5075643;28;20481;-67
2024/01/08 02:48:01;;;;;;;25.03;3.23;;;1.30;94.10;;;;;;5058872;28;20482;-67
2024/01/08 02:50:27;;;;;;;8.10;1.63;;;1.30;94.20;;;;;;5064030;28;20548;-69
2024/01/08 02:52:53;;;;;;;2.37;1.70;;;1.50;94.40;;;;;;5053979;28;20478;-68
2024/01/08 02:55:19;;;;;;;2.13;1.40;;;1.40;94.30;;;;;;5067193;28;20485;-69
2024/01/08 02:57:46;;;;;;;10.57;2.57;;;1.40;94.20;;;;;;5066901;28;20478;-67
2024/01/08 03:00:13;;;;;;;2.23;1.77;;;1.40;94.20;;;;;;5044098;28;20935;-69
2024/01/08 03:02:39;;;;;;;2.50;1.40;;;1.40;94.10;;;;;;5035841;28;20611;-63
2024/01/08 03:05:06;;;;;;;2.53;1.47;;;1.40;94.20;;;;;;5057492;28;20482;-64
2024/01/08 03:07:32;;;;;;;2.07;1.57;;;1.40;93.90;;;;;;5050383;27;20489;-64
2024/01/08 03:09:59;;;;;;;1.77;0.83;;;1.40;94.10;;;;;;5060140;28;20478;-64
2024/01/08 03:12:26;;;;;;;1.77;1.20;;;1.40;93.90;;;;;;5056027;27;20546;-65
2024/01/08 03:14:53;;;;;;;1.97;1.40;;;1.40;93.70;;;;;;5057206;28;20532;-65
2024/01/08 03:17:19;;;;;;;2.57;1.67;;;1.40;93.80;;;;;;5051456;27;20477;-64
2024/01/08 03:19:45;;;;;;;2.43;2.03;;;1.40;93.90;;;;;;5043993;27;20510;-63
2024/01/08 03:22:11;;;;;;;3.03;1.30;;;1.40;93.90;;;;;;5053034;27;20587;-63
2024/01/08 03:24:38;;;;;;;26.80;3.70;;;;;;;;;;5065222;27;20481;-64
2024/01/08 03:27:04;;;;;;;1.97;0.87;;;1.40;93.70;;;;;;5060461;28;20511;-65
2024/01/08 03:29:31;;;;;;;8.70;2.23;;;1.40;93.60;;;;;;5056494;28;20479;-64
2024/01/08 03:31:57;;;;;;;9.73;1.70;;;1.30;93.50;;;;;;5024789;28;20608;-63
2024/01/08 03:34:24;;;;;;;3.00;1.03;;;1.40;93.90;;;;;;5025487;28;20670;-72
2024/01/08 03:36:50;;;;;;;1.70;1.10;;;1.30;94.00;;;;;;5035103;28;20478;-68
2024/01/08 03:39:17;;;;;;;19.20;3.40;;;1.30;93.60;;;;;;5056253;28;20478;-71
2024/01/08 03:41:44;;;;;;;2.83;2.10;;;1.30;93.80;;;;;;5037555;28;20975;-69
2024/01/08 03:44:11;;;;;;;1.90;1.20;;;1.30;93.80;;;;;;5054196;28;20856;-69
2024/01/08 03:46:37;;;;;;;2.77;1.47;;;1.20;93.90;;;;;;5059207;28;20478;-69
2024/01/08 03:49:05;;;;;;;2.00;1.40;;;1.20;93.80;;;;;;5031756;28;20485;-71
2024/01/08 03:51:31;;;;;;;2.37;1.57;;;1.20;93.70;;;;;;5041086;28;20552;-68
2024/01/08 03:53:57;;;;;;;1.73;1.07;;;1.20;93.60;;;;;;5064113;28;20698;-72
2024/01/08 03:56:23;;;;;;;3.80;1.40;;;1.20;93.60;;;;;;5074007;28;20513;-69
2024/01/08 03:58:50;;;;;;;7.93;2.17;;;1.20;93.80;;;;;;5059659;28;20481;-66
2024/01/08 04:01:16;;;;;;;6.30;1.50;;;1.20;93.60;;;;;;5061328;28;20493;-69
2024/01/08 04:03:42;;;;;;;2.70;1.60;;;1.30;93.80;;;;;;5069158;28;20474;-65
2024/01/08 04:06:09;;;;;;;10.60;1.90;;;1.30;93.70;;;;;;5069672;28;20474;-65
2024/01/08 04:08:35;;;;;;;2.07;1.57;;;1.30;93.80;;;;;;5057437;28;20813;-64
2024/01/08 04:11:02;;;;;;;3.80;1.93;;;1.40;93.90;;;;;;5072299;28;20935;-64
2024/01/08 04:13:28;;;;;;;10.73;1.60;;;1.30;93.30;;;;;;5051044;28;20474;-65
2024/01/08 04:15:54;;;;;;;4.40;1.23;;;1.30;93.30;;;;;;5026863;28;20486;-64
2024/01/08 04:18:20;;;;;;;1.93;1.00;;;1.30;93.40;;;;;;5075555;28;20529;-64
2024/01/08 04:20:46;;;;;;;2.57;1.70;;;1.30;93.60;;;;;;5073501;28;20481;-64
2024/01/08 04:23:13;;;;;;;1.80;1.27;;;1.30;93.70;;;;;;5040975;28;20479;-63
2024/01/08 04:25:39;;;;;;;2.97;1.70;;;1.40;93.70;;;;;;5041511;28;20533;-64
2024/01/08 04:28:08;;;;;;;9.83;1.70;;;1.40;93.50;;;;;;5047726;28;20475;-65
2024/01/08 04:30:35;;;;;;;1.90;1.43;;;1.40;93.60;;;;;;5028104;28;20881;-62
2024/01/08 04:33:01;;;;;;;3.60;1.73;;;1.30;93.40;;;;;;5037327;28;20480;-64
2024/01/08 04:35:27;;;;;;;10.70;2.30;;;1.40;93.40;;;;;;5051888;28;20482;-65
2024/01/08 04:37:53;;;;;;;2.43;1.63;;;1.30;93.20;;;;;;5054822;28;20827;-64
2024/01/08 04:40:20;;;;;;;32.60;2.90;;;;;;;;;;5033081;28;20479;-63
2024/01/08 04:42:46;;;;;;;2.40;1.60;;;1.20;92.90;;;;;;5052093;28;20483;-64
2024/01/08 04:45:13;;;;;;;10.33;1.67;;;1.30;93.20;;;;;;5072292;28;20526;-64
2024/01/08 04:47:39;;;;;;;8.70;1.30;;;1.20;93.00;;;;;;5041235;28;20542;-63
2024/01/08 04:50:06;;;;;;;1.87;1.60;;;1.30;93.40;;;;;;5019274;28;20524;-64
2024/01/08 04:52:32;;;;;;;2.77;2.20;;;1.30;93.40;;;;;;5062545;28;20493;-63
2024/01/08 04:54:58;;;;;;;1.60;0.90;;;1.30;93.20;;;;;;5063486;28;20482;-65
2024/01/08 04:57:25;;;;;;;7.40;1.50;;;1.30;93.10;;;;;;5074740;28;20615;-65
2024/01/08 04:59:51;;;;;;;2.70;1.70;;;1.30;93.20;;;;;;5064038;28;20537;-64
2024/01/08 05:02:18;;;;;;;2.20;1.77;;;1.30;93.20;;;;;;5030612;28;20481;-64
2024/01/08 05:04:44;;;;;;;2.20;1.77;;;1.30;93.10;;;;;;5055193;28;20485;-64
2024/01/08 05:07:12;;;;;;;2.40;1.80;;;1.30;93.10;;;;;;5071196;28;20527;-64
2024/01/08 05:09:39;;;;;;;2.53;2.23;;;1.30;93.20;;;;;;5052818;28;20556;-65
2024/01/08 05:12:06;;;;;;;3.93;2.30;;;1.30;93.20;;;;;;5032468;28;20876;-64
2024/01/08 05:14:33;;;;;;;2.87;1.70;;;1.30;93.10;;;;;;5060143;28;20490;-65
2024/01/08 05:16:59;;;;;;;6.67;1.23;;;1.30;93.20;;;;;;5013446;28;20486;-66
2024/01/08 05:19:25;;;;;;;2.17;1.77;;;1.30;93.10;;;;;;5026576;28;20544;-65
2024/01/08 05:21:53;;;;;;;6.17;1.43;;;1.30;93.10;;;;;;5068701;28;21720;-64
2024/01/08 05:24:19;;;;;;;1.97;1.20;;;1.30;93.30;;;;;;5063791;28;20475;-64
2024/01/08 05:26:46;;;;;;;2.20;1.47;;;1.30;93.30;;;;;;5029296;28;21193;-65
2024/01/08 05:29:12;;;;;;;12.30;1.60;;;1.20;93.30;;;;;;5037494;28;21040;-65
2024/01/08 05:31:40;;;;;;;31.60;4.47;;;1.20;93.30;;;;;;5033903;28;20796;-65
2024/01/08 05:34:06;;;;;;;2.37;1.50;;;1.20;93.40;;;;;;5049445;28;20865;-65
2024/01/08 05:36:32;;;;;;;2.53;1.60;;;1.20;93.40;;;;;;5030604;28;20486;-66
2024/01/08 05:38:59;;;;;;;2.20;1.10;;;;;;;;;;5051395;28;20477;-65
2024/01/08 05:41:25;;;;;;;1.80;1.20;;;1.20;93.10;;;;;;5063453;28;20485;-65
2024/01/08 05:43:52;;;;;;;2.00;1.80;;;1.20;93.40;;;;;;5075231;28;20473;-64
2024/01/08 05:46:18;;;;;;;1.77;1.37;;;1.20;93.30;;;;;;5069088;27;21070;-69
2024/01/08 05:48:45;;;;;;;3.80;1.50;;;1.20;93.40;;;;;;5048231;28;20476;-70
2024/01/08 05:51:11;;;;;;;2.43;1.43;;;1.20;93.30;;;;;;5061718;28;20474;-70
2024/01/08 05:53:37;;;;;;;1.70;1.30;;;1.20;93.20;;;;;;5028005;28;20524;-69
2024/01/08 05:56:04;;;;;;;43.67;3.10;;;;;;;;;;5075649;27;20485;-69
2024/01/08 05:58:32;;;;;;;4.13;1.93;;;1.20;93.20;;;;;;5057771;28;20485;-70
2024/01/08 06:00:59;;;;;;;1.70;0.90;;;1.20;93.10;;;;;;5064494;27;20473;-71
2024/01/08 06:03:25;;;;;;;8.93;1.50;;;1.10;93.00;;;;;;5069573;28;20481;-67
2024/01/08 06:05:52;;;;;;;2.33;1.80;;;1.10;93.20;;;;;;5043344;28;20504;-70
2024/01/08 06:08:18;;;;;;;2.77;1.37;;;1.10;93.30;;;;;;5064366;28;20479;-69
2024/01/08 06:10:44;;;;;;;11.10;1.77;;;1.10;93.10;;;;;;5054556;28;20508;-71
2024/01/08 06:13:11;;;;;;;2.23;1.10;;;1.10;93.20;;;;;;5041811;27;21048;-72
2024/01/08 06:15:37;;;;;;;1.60;1.40;;;1.10;93.10;;;;;;5067168;28;20505;-69
2024/01/08 06:18:04;;;;;;;3.30;1.97;;;1.20;93.40;;;;;;5037987;28;20501;-71
2024/01/08 06:20:30;;;;;;;2.10;1.90;;;1.20;93.30;;;;;;5056704;28;20643;-70
2024/01/08 06:22:57;;;;;;;2.00;1.67;;;1.20;93.30;;;;;;5060483;28;20547;-68
2024/01/08 06:25:23;;;;;;;2.20;1.60;;;1.30;93.40;;;;;;5056505;27;20474;-65
2024/01/08 06:27:50;;;;;;;1.93;1.47;;;1.20;93.20;;;;;;5061834;27;20527;-66
2024/01/08 06:30:17;;;;;;;11.87;2.20;;;;;;;;;;5076767;27;20726;-64
2024/01/08 06:32:43;;;;;;;9.43;1.60;;;1.20;93.00;;;;;;5046743;28;20490;-63
2024/01/08 06:35:10;;;;;;;25.07;2.73;;;1.30;93.40;;;;;;5077476;27;20559;-63
2024/01/08 06:37:36;;;;;;;8.03;2.20;;;1.20;92.90;;;;;;5037511;27;20830;-65
2024/01/08 06:40:04;;;;;;;2.50;1.50;;;1.20;92.80;;;;;;5057497;27;20484;-65
2024/01/08 06:42:30;;;;;;;1.93;1.33;;;1.20;93.10;;;;;;5071349;28;20858;-65
2024/01/08 06:44:57;;;;;;;10.93;1.33;;;1.20;93.00;;;;;;5065667;27;20953;-64
2024/01/08 06:47:23;;;;;;;2.13;1.10;;;1.10;93.10;;;;;;5062209;28;20475;-65
2024/01/08 06:49:50;;;;;;;2.10;1.50;;;1.20;93.20;;;;;;5041087;28;21068;-65
2024/01/08 06:52:16;;;;;;;2.10;1.90;;;1.20;93.30;;;;;;5034149;28;20916;-64
2024/01/08 06:54:42;;;;;;;2.53;2.00;;;1.10;92.90;;;;;;5063089;27;20868;-70
2024/01/08 06:57:09;;;;;;;2.57;1.80;;;1.10;92.90;;;;;;5043341;27;20482;-70
2024/01/08 06:59:35;;;;;;;2.60;1.97;;;1.20;93.40;;;;;;5030608;28;20893;-70
2024/01/08 07:02:02;;;;;;;2.73;1.00;;;1.20;93.10;;;;;;5054199;27;21032;-71
2024/01/08 07:04:29;;;;;;;1.93;1.20;;;1.10;92.90;;;;;;5065536;27;20856;-68
2024/01/08 07:06:55;;;;;;;1.60;1.10;;;1.10;93.10;;;;;;5029102;28;20481;-67
2024/01/08 07:09:21;;;;;;;3.57;1.90;;;1.10;93.20;;;;;;5058607;28;20482;-70
2024/01/08 07:11:47;;;;;;;26.67;2.40;;;1.20;93.00;;;;;;5032026;27;20869;-71
2024/01/08 07:14:14;;;;;;;2.40;1.77;;;1.20;92.90;;;;;;5063646;28;20579;-71
2024/01/08 07:16:40;;;;;;;9.63;1.80;;;1.20;92.90;;;;;;5043309;28;20486;-70
2024/01/08 07:19:06;;;;;;;10.10;2.00;;;1.20;93.00;;;;;;5071348;28;20539;-70
2024/01/08 07:21:32;;;;;;;2.67;1.43;;;1.20;92.80;;;;;;5061968;28;20538;-70
2024/01/08 07:23:59;;;;;;;3.10;2.33;;;1.20;92.80;;;;;;5073052;28;20487;-71
2024/01/08 07:26:25;;;;;;;2.53;2.30;;;1.20;92.70;;;;;;5058618;28;20474;-68
2024/01/08 07:28:51;;;;;;;10.50;2.13;;;1.10;92.70;;;;;;5069236;27;20946;-70
2024/01/08 07:31:18;;;;;;;3.00;1.90;;;1.10;92.70;;;;;;5034823;28;20910;-68
2024/01/08 07:33:44;;;;;;;1.70;1.00;;;1.00;92.30;;;;;;5050364;28;23001;-70
2024/01/08 07:36:13;;;;;;;1.60;0.90;;;1.00;92.60;;;;;;5034856;28;20470;-65
2024/01/08 07:38:39;;;;;;;3.50;1.20;;;1.00;92.70;;;;;;5057423;28;20565;-65
2024/01/08 07:41:07;;;;;;;2.17;1.80;;;1.10;93.20;;;;;;5050530;28;21320;-64
2024/01/08 07:43:33;;;;;;;17.73;2.47;;;1.10;93.00;;;;;;5034122;28;21603;-65
2024/01/08 07:46:00;;;;;;;6.27;2.73;;;1.20;93.10;;;;;;5044648;27;20501;-64
2024/01/08 07:48:27;;;;;;;11.53;2.67;;;1.20;93.10;;;;;;5052845;28;20462;-66
2024/01/08 07:50:53;;;;;;;22.03;2.80;;;1.20;93.10;;;;;;5050609;28;20476;-65
2024/01/08 07:53:19;;;;;;;9.37;2.57;;;1.20;92.90;;;;;;5057009;27;20485;-65
2024/01/08 07:55:45;;;;;;;1.67;1.40;;;1.20;92.90;;;;;;5054428;28;20483;-64
2024/01/08 07:58:13;;;;;;;2.30;2.10;;;1.20;93.00;;;;;;5062216;28;21217;-66
2024/01/08 08:00:40;;;;;;;12.00;2.73;;;1.10;92.90;;;;;;5046142;28;20491;-65
2024/01/08 08:03:07;;;;;;;5.50;2.90;;;1.20;93.10;;;;;;5008804;28;20759;-64
2024/01/08 08:05:34;;;;;;;3.57;2.20;;;1.10;92.80;;;;;;5053347;28;20848;-70
2024/01/08 08:08:00;;;;;;;4.30;0.97;;;1.10;92.90;;;;;;5044577;27;20482;-69
2024/01/08 08:10:26;;;;;;;5.47;1.83;;;1.20;93.10;;;;;;5065837;28;20457;-69
2024/01/08 08:12:52;;;;;;;1.90;1.20;;;1.10;92.60;;;;;;5057827;28;20483;-68
2024/01/08 08:15:18;;;;;;;2.07;1.87;;;1.20;92.80;;;;;;5026146;28;20526;-69
2024/01/08 08:17:45;;;;;;;1.97;1.03;;;1.20;92.50;;;;;;5045513;27;20469;-69
2024/01/08 08:20:11;;;;;;;2.00;1.80;;;1.20;92.60;;;;;;5033116;28;20803;-70
2024/01/08 08:22:38;;;;;;;2.47;2.20;;;1.20;92.60;;;;;;5026375;28;20487;-68
2024/01/08 08:25:05;;;;;;;2.33;1.60;;;1.20;92.50;;;;;;5048469;28;20539;-70
2024/01/08 08:27:32;;;;;;;32.33;3.90;;;1.20;93.00;;;;;;5022400;28;21211;-68
2024/01/08 08:29:58;;;;;;;17.87;2.30;;;1.20;92.70;;;;;;5043061;28;20477;-71
2024/01/08 08:32:25;;;;;;;4.43;1.73;;;1.20;92.60;;;;;;5066406;28;20478;-71
2024/01/08 08:34:51;;;;;;;10.93;2.50;;;1.20;92.90;;;;;;5057817;28;20477;-69
2024/01/08 08:37:17;;;;;;;2.80;2.50;;;1.20;92.90;;;;;;5049962;28;20523;-70
2024/01/08 08:39:44;;;;;;;2.97;1.80;;;1.20;92.90;;;;;;4931660;28;3591000;-71
2024/01/08 08:42:11;;;;;;;10.80;2.50;;;1.30;93.00;;;;;;5045257;28;20231;-71
2024/01/08 08:44:37;;;;;;;2.13;1.40;;;1.30;92.90;;;;;;5048002;28;20485;-68
2024/01/08 08:47:04;;;;;;;1.73;0.97;;;1.30;93.10;;;;;;5041184;28;20509;-65
2024/01/08 08:49:30;;;;;;;3.00;2.40;;;1.30;93.00;;;;;;5040526;28;20475;-65
2024/01/08 08:51:56;;;;;;;2.60;1.90;;;1.20;92.90;;;;;;5037807;28;20533;-65
2024/01/08 08:54:23;;;;;;;3.53;2.03;;;1.20;92.80;;;;;;5011062;28;20487;-65
2024/01/08 08:56:49;;;;;;;4.10;2.20;;;1.30;92.90;;;;;;5020842;28;20549;-64
2024/01/08 08:59:16;;;;;;;2.17;1.93;;;1.30;93.10;;;;;;5029039;28;20511;-65
2024/01/08 09:01:42;;;;;;;11.93;2.30;;;1.30;93.10;;;;;;5019511;28;20484;-65
2024/01/08 09:04:08;;;;;;;12.77;2.90;;;1.30;92.80;;;;;;5042543;28;22000;-66
2024/01/08 09:06:34;;;;;;;2.63;1.80;;;1.30;92.80;;;;;;5022244;28;20852;-66
2024/01/08 09:09:01;;;;;;;18.07;3.20;;;1.30;92.90;;;;;;5033646;28;21200;-64
2024/01/08 09:11:28;;;;;;;4.07;2.73;;;1.30;92.90;;;;;;5022708;28;20822;-65
2024/01/08 09:13:54;;;;;;;6.13;3.37;;;1.40;93.00;;;;;;5007524;28;20484;-64
2024/01/08 09:16:22;;;;;;;9.93;3.07;;;1.40;92.80;;;;;;5031253;28;20471;-69
2024/01/08 09:18:49;;;;;;;3.17;2.80;;;1.40;92.90;;;;;;5041905;28;20600;-71
2024/01/08 09:21:15;;;;;;;2.67;1.77;;;1.30;92.80;;;;;;5036523;28;20652;-68
2024/01/08 09:23:41;;;;;;;2.70;2.30;;;1.30;92.80;;;;;;5021981;28;20494;-68
2024/01/08 09:26:07;;;;;;;2.83;2.00;;;1.30;92.90;;;;;;5041217;28;20825;-72
2024/01/08 09:28:34;;;;;;;3.57;1.90;;;1.30;92.70;;;;;;5040366;28;21137;-71
2024/01/08 09:31:02;;;;;;;3.17;2.10;;;1.30;92.60;;;;;;5027029;28;20486;-70
2024/01/08 09:33:29;;;;;;;5.67;3.10;;;1.30;92.60;;;;;;5031228;28;20482;-68
2024/01/08 09:35:55;;;;;;;3.97;2.47;;;1.30;93.00;;;;;;5037366;28;20959;-70
2024/01/08 09:38:21;;;;;;;3.27;1.87;;;1.30;92.30;;;;;;5036547;28;20467;-71
2024/01/08 09:40:48;;;;;;;4.13;2.10;;;1.30;92.30;;;;;;5008314;28;20476;-68
2024/01/08 09:43:15;;;;;;;21.97;3.33;;;1.30;92.70;;;;;;5034138;28;20908;-70
2024/01/08 09:45:59;;;;;;;3.53;3.30;;;1.30;92.80;;;;;;5028158;28;20550;-70
2024/01/08 09:48:26;;;;;;;2.60;2.10;;;1.40;92.90;;;;;;5029193;28;20468;-68
2024/01/08 09:50:53;;;;;;;7.67;1.20;;;1.40;92.40;;;;;;5035445;28;20471;-73
2024/01/08 09:53:20;;;;;;;11.90;3.20;;;1.40;92.70;;;;;;5033219;28;20516;-71
2024/01/08 09:55:49;;;;;;;3.03;2.50;;;1.40;93.00;;;;;;5032990;28;20998;-63
2024/01/08 09:58:15;;;;;;;13.07;2.87;;;1.40;92.60;;;;;;5032630;28;21030;-65
2024/01/08 10:00:42;;;;;;;4.43;3.17;;;1.40;92.70;;;;;;5039428;28;20487;-64
2024/01/08 10:03:09;;;;;;;3.23;2.57;;;1.40;92.80;;;;;;5024993;28;20558;-64
2024/01/08 10:05:36;;;;;;;5.90;2.30;;;1.50;92.70;;;;;;5030298;28;21560;-66
2024/01/08 10:08:02;;;;;;;3.40;3.10;;;1.50;92.60;;;;;;5038894;28;20530;-64
2024/01/08 10:10:29;;;;;;;2.00;1.10;;;;;;;;;;5033848;28;21290;-65
2024/01/08 10:12:56;;;;;;;5.93;3.23;;;1.50;92.50;;;;;;5028130;28;20537;-64
2024/01/08 10:15:22;;;;;;;2.50;1.47;;;1.40;92.50;;;;;;5032970;28;20529;-64
2024/01/08 10:17:49;;;;;;;21.33;3.17;;;1.40;92.60;;;;;;5037608;28;20467;-64
2024/01/08 10:20:16;;;;;;;4.63;3.10;;;1.50;92.90;;;;;;5038151;28;20483;-63
2024/01/08 10:22:44;;;;;;;3.80;2.87;;;1.50;92.50;;;;;;5033474;28;20479;-64
2024/01/08 10:25:12;;;;;;;14.20;3.10;;;1.50;92.20;;;;;;5031664;28;20563;-65
2024/01/08 10:27:39;;;;;;;3.53;1.90;;;1.50;92.50;;;;;;5022738;28;20526;-67
2024/01/08 10:30:06;;;;;;;2.47;1.57;;;1.40;92.30;;;;;;5029535;28;20491;-71
2024/01/08 10:32:32;;;;;;;3.03;2.40;;;1.40;92.30;;;;;;5048882;28;20495;-70
2024/01/08 10:35:02;;;;;;;3.03;2.47;;;1.40;92.10;;;;;;5018485;28;20484;-69
2024/01/08 10:37:28;;;;;;;4.17;2.77;;;1.30;92.20;;;;;;5040307;28;20528;-69
2024/01/08 10:39:57;;;;;;;2.70;2.10;;;1.30;92.70;;;;;;5051061;28;20481;-70
2024/01/08 10:42:24;;;;;;;6.23;2.80;;;1.40;93.00;;;;;;5045302;28;20474;-70
2024/01/08 10:44:50;;;;;;;4.60;2.77;;;1.40;93.10;;;;;;5028558;28;20481;-70
2024/01/08 10:47:19;;;;;;;6.60;2.97;;;1.50;93.20;;;;;;5023466;28;20472;-72
2024/01/08 10:49:50;;;;;;;2.90;2.60;;;1.40;93.20;;;;;;5043270;28;20915;-67
2024/01/08 10:52:24;;;;;;;18.67;2.93;;;1.40;93.00;;;;;;5024457;28;20483;-70
2024/01/08 10:54:54;;;;;;;2.73;2.40;;;1.40;92.70;;;;;;5047017;28;20858;-69
2024/01/08 10:57:22;;;;;;;5.23;2.23;;;1.30;93.00;;;;;;5042897;28;20512;-67
2024/01/08 10:59:51;;;;;;;4.90;3.07;;;1.30;93.20;;;;;;5050894;28;20479;-71
2024/01/08 11:02:17;;;;;;;2.97;2.23;;;1.30;92.80;;;;;;5027769;28;22496;-71
2024/01/08 11:04:44;;;;;;;2.87;2.33;;;1.30;92.80;;;;;;5033825;28;20548;-68
2024/01/08 11:07:13;;;;;;;5.03;2.70;;;1.30;93.20;;;;;;5009853;28;20475;-69
2024/01/08 11:09:40;;;;;;;7.77;3.97;;;1.40;93.10;;;;;;5034077;28;20482;-68
2024/01/08 11:12:10;;;;;;;3.50;2.90;;;1.40;93.10;;;;;;5018599;28;20479;-69
2024/01/08 11:14:39;;;;;;;5.13;3.20;;;1.40;93.10;;;;;;5022285;28;20905;-70
2024/01/08 11:17:08;;;;;;;6.20;3.30;;;1.40;93.10;;;;;;5050266;28;20480;-70
2024/01/08 11:19:40;;;;;;;36.23;4.03;;;1.30;92.50;;;;;;5034885;28;20493;-68
2024/01/08 11:22:11;;;;;;;3.33;2.47;;;1.20;92.50;;;;;;5049498;28;20528;-67
2024/01/08 11:24:37;;;;;;;2.40;2.20;;;1.20;92.80;;;;;;5047064;28;20512;-70
2024/01/08 11:27:04;;;;;;;12.03;2.33;;;1.20;92.80;;;;;;5001901;28;20479;-66
2024/01/08 11:29:32;;;;;;;12.23;3.30;;;1.20;93.00;;;;;;5035643;28;21083;-67
2024/01/08 11:32:37;;;;;;;3.30;2.30;;;1.20;93.00;;;;;;5048964;28;20468;-68
2024/01/08 11:35:06;;;;;;;3.67;2.87;;;1.30;92.80;;;;;;5048110;28;20465;-69
2024/01/08 11:37:34;;;;;;;3.50;2.30;;;1.20;92.70;;;;;;5030409;28;20492;-65
2024/01/08 11:40:02;;;;;;;14.97;5.83;;;;;;;;;;5022479;28;20492;-64
2024/01/08 11:42:30;;;;;;;15.27;3.27;;;1.30;92.70;;;;;;5046727;28;20482;-64
2024/01/08 11:44:58;;;;;;;4.63;2.97;;;1.40;92.70;;;;;;5034398;28;21595;-65
2024/01/08 11:47:25;;;;;;;16.13;5.60;;;1.40;92.60;;;;;;5053363;28;20859;-63
2024/01/08 11:49:51;;;;;;;4.67;3.07;;;1.40;92.50;;;;;;5038420;28;20523;-63
2024/01/08 11:52:19;;;;;;;7.10;4.00;;;1.30;92.40;;;;;;5048552;28;20486;-64
2024/01/08 11:54:48;;;;;;;8.80;4.60;;;1.40;92.30;;;;;;5024975;28;20476;-64
2024/01/08 11:57:16;;;;;;;14.20;3.80;;;1.40;92.30;;;;;;5029084;28;20487;-65
2024/01/08 11:59:42;;;;;;;4.40;3.10;;;1.40;92.20;;;;;;5034662;28;20935;-65
2024/01/08 12:02:12;;;;;;;4.23;3.70;;;1.40;92.20;;;;;;5023116;28;20491;-63
2024/01/08 12:04:39;;;;;;;4.33;3.47;;;1.40;92.30;;;;;;5007295;28;21116;-64
2024/01/08 12:07:05;;;;;;;7.63;4.27;;;1.40;92.30;;;;;;5004443;28;20887;-64
2024/01/08 12:09:31;;;;;;;4.03;1.87;;;1.40;91.60;;;;;;5039106;28;20482;-65
2024/01/08 12:12:05;;;;;;;4.57;2.60;;;1.40;91.60;;;;;;5036238;28;20479;-63
2024/01/08 12:14:32;;;;;;;20.53;2.97;;;;;;;;;;4987459;28;20968;-64
2024/01/08 12:16:59;;;;;;;4.07;2.97;;;1.30;91.70;;;;;;5006300;28;20575;-63
2024/01/08 12:19:35;;;;;;;11.23;3.13;;;1.30;91.70;;;;;;4997737;28;21179;-65
2024/01/08 12:22:02;;;;;;;15.77;2.97;;;1.30;91.30;;;;;;5017036;28;20491;-66
2024/01/08 12:24:29;;;;;;;1.90;1.70;;;1.30;91.30;;;;;;5010771;28;20535;-64
2024/01/08 12:27:01;;;;;;;5.80;2.87;;;1.30;91.10;;;;;;5010984;28;20587;-65
2024/01/08 12:29:27;;;;;;;9.00;2.70;;;1.30;91.10;;;;;;5029796;28;20920;-65
2024/01/08 12:31:56;;;;;;;3.83;2.97;;;1.20;91.20;;;;;;5023101;28;20979;-63
2024/01/08 12:34:22;;;;;;;3.60;2.77;;;1.30;91.30;;;;;;5021975;28;20561;-65
2024/01/08 12:36:51;;;;;;;15.50;4.30;;;1.30;91.30;;;;;;5029901;28;20474;-64
2024/01/08 12:39:19;;;;;;;5.10;2.90;;;1.30;91.20;;;;;;5035559;28;20514;-66
2024/01/08 12:41:45;;;;;;;4.57;3.07;;;1.20;90.90;;;;;;4989708;28;20607;-63
2024/01/08 12:44:12;;;;;;;5.60;3.40;;;1.30;91.10;;;;;;5033345;28;20834;-63
2024/01/08 12:46:38;;;;;;;7.00;4.43;;;1.30;91.30;;;;;;5024944;28;20476;-63
2024/01/08 12:49:04;;;;;;;28.27;3.97;;;1.30;90.70;;;;;;5028258;28;20476;-67
2024/01/08 12:51:30;;;;;;;5.23;2.53;;;1.40;90.70;;;;;;5006771;28;20524;-67
2024/01/08 12:53:57;;;;;;;12.73;3.03;;;1.30;90.50;;;;;;5028361;28;20483;-70
2024/01/08 12:56:23;;;;;;;13.07;2.87;;;1.30;90.20;;;;;;5036879;28;20852;-71